Sao Felix do Piaui, Brazil
Current Conditions -  °F | °C
As of 6:00 AM on Wednesday 22 Oct 2014 (Local Time) from SBTE Reporting Station
Overcast Overcast  
Wind Chill: 24°   Ceiling: 8000
Heat Index: 24°   Visibility: 6mi
Dew Point: 23°   Wind: 0mph
Humidity: 94%   Direction: NA
Pressure: 29.88"   Gusts: NA
Location:  5.95°S, 42.11°W
Report Text: SBTE 220900Z 00000KT 9999 SCT020 OVC080 24/23 Q1012
Loading
Personal Weather Stations






























Interactive Weather Map
Tropical Storm Tracking
New forecast layout! Learn more

10-Day Weather Forecast

Advertisements
Track Severe Weather on mobile